Time;durP1;ratioP1;P1;durP2;ratioP2;P2;SDS_P1;SDS_P2;PMS_P1;PMS_P2;Temp;Humidity;BMP_temperature;BMP_pressure;BME280_temperature;BME280_humidity;BME280_pressure;Samples;Min_cycle;Max_cycle;Signal;HPM_P1;HPM_P2
2021/08/05 00:00:35;;;;;;;15.98;9.49;;;;;;;26.11;51.60;99163.00;396605;103;1985921;-70
2021/08/05 00:01:40;;;;;;;16.74;10.34;;;;;;;26.01;51.40;99164.13;379514;105;1962062;-69
2021/08/05 00:02:52;;;;;;;16.85;10.13;;;;;;;26.10;51.59;99159.42;387279;106;1986000;-70
2021/08/05 00:03:57;;;;;;;15.08;9.51;;;;;;;26.00;51.51;99165.24;368299;109;1961998;-70
2021/08/05 00:05:21;;;;;;;16.02;9.47;;;;;;;25.93;51.68;99159.35;365216;109;1964066;-70
2021/08/05 00:06:33;;;;;;;14.16;9.35;;;;;;;26.05;51.82;99159.56;392766;104;1988313;-70
2021/08/05 00:07:38;;;;;;;14.77;9.54;;;;;;;25.97;51.72;99154.82;361853;110;1962030;-70
2021/08/05 00:08:50;;;;;;;13.83;9.27;;;;;;;26.04;51.79;99148.83;384438;104;2937962;-71
2021/08/05 00:09:56;;;;;;;15.85;10.02;;;;;;;25.88;51.91;99146.50;336943;107;2668983;-69
2021/08/05 00:11:02;;;;;;;12.78;9.18;;;;;;;25.88;52.05;99151.22;336373;107;2035055;-71
2021/08/05 00:12:07;;;;;;;15.15;9.67;;;;;;;25.85;52.09;99146.30;376459;107;1961962;-70
2021/08/05 00:13:13;;;;;;;15.10;9.36;;;;;;;25.84;52.17;99153.80;374654;107;1964062;-70
2021/08/05 00:14:25;;;;;;;13.83;9.13;;;;;;;25.99;52.10;99154.52;395214;104;1985948;-70
2021/08/05 00:15:30;;;;;;;17.06;9.89;;;;;;;25.88;52.07;99145.69;378419;105;1962067;-70
2021/08/05 00:16:36;;;;;;;14.67;9.35;;;;;;;25.83;52.25;99140.27;379000;106;1962013;-70
2021/08/05 00:17:41;;;;;;;15.38;9.75;;;;;;;25.76;52.40;99143.48;376744;105;1963030;-71
2021/08/05 00:18:54;;;;;;;13.20;9.14;;;;;;;25.88;52.42;99143.73;352315;106;2635007;-71
2021/08/05 00:19:59;;;;;;;15.22;9.14;;;;;;;25.76;52.41;99143.48;333788;107;2043039;-70
2021/08/05 00:21:11;;;;;;;17.49;10.01;;;;;;;25.85;52.59;99144.38;384874;106;2071860;-70
2021/08/05 00:22:16;;;;;;;17.14;9.54;;;;;;;25.73;52.62;99141.36;367723;107;1962056;-70
2021/08/05 00:23:29;;;;;;;13.63;9.06;;;;;;;25.84;52.49;99142.73;392902;104;1985931;-70
2021/08/05 00:24:34;;;;;;;15.44;10.38;;;;;;;25.70;52.56;99139.23;375537;105;1962010;-69
2021/08/05 00:25:57;;;;;;;14.77;8.97;;;;;;;25.70;52.65;99141.20;374260;105;1964005;-70
2021/08/05 00:27:09;;;;;;;12.82;8.69;;;;;;;25.76;52.71;99132.41;402681;101;1986031;-70
2021/08/05 00:28:15;;;;;;;15.02;8.98;;;;;;;25.62;52.69;99138.06;377437;103;2905986;-70
2021/08/05 00:29:27;;;;;;;15.37;9.52;;;;;;;25.72;52.86;99136.13;393326;104;1987059;-69
2021/08/05 00:30:33;;;;;;;13.58;9.33;;;;;;;25.57;52.86;99135.44;376384;107;1962039;-71
2021/08/05 00:31:38;;;;;;;12.61;8.28;;;;;;;25.53;53.08;99136.38;377484;107;1962036;-70
2021/08/05 00:32:50;;;;;;;12.04;7.37;;;;;;;25.61;53.08;99130.88;392095;104;1986940;-69
2021/08/05 00:34:02;;;;;;;13.08;8.55;;;;;;;25.63;53.06;99127.81;359908;104;2600947;-70
2021/08/05 00:35:08;;;;;;;16.03;9.25;;;;;;;25.48;53.27;99131.80;351683;105;1961874;-70
2021/08/05 00:36:20;;;;;;;15.21;9.24;;;;;;;25.58;53.15;99133.48;375680;109;2076043;-70
2021/08/05 00:37:33;;;;;;;13.86;8.82;;;;;;;25.56;53.34;99127.44;385274;103;2859016;-68
2021/08/05 00:38:39;;;;;;;12.11;8.58;;;;;;;25.41;53.32;99120.39;344511;107;1964006;-70
2021/08/05 00:39:51;;;;;;;15.31;9.80;;;;;;;25.55;53.29;99120.30;394668;103;2073058;-69
2021/08/05 00:41:03;;;;;;;15.07;8.24;;;;;;;25.54;53.37;99124.20;383268;103;2943985;-68
2021/08/05 00:42:08;;;;;;;14.11;8.37;;;;;;;25.40;53.39;99122.35;375664;107;1961990;-71
2021/08/05 00:43:22;;;;;;;14.63;8.74;;;;;;;25.46;53.54;99123.02;385177;106;1985999;-69
2021/08/05 00:44:36;;;;;;;13.50;8.44;;;;;;;25.43;53.62;99127.24;387942;104;2860003;-70
2021/08/05 00:46:02;;;;;;;12.62;8.67;;;;;;;25.31;53.62;99118.71;338521;105;2688968;-69
2021/08/05 00:47:14;;;;;;;12.97;9.39;;;;;;;25.39;53.78;99125.42;386943;104;2975910;-67
2021/08/05 00:48:20;;;;;;;13.08;8.80;;;;;;;25.29;53.89;99125.69;370262;106;1961078;-69
2021/08/05 00:49:32;;;;;;;14.11;8.26;;;;;;;25.37;53.85;99122.96;397647;103;1985991;-68
2021/08/05 00:50:38;;;;;;;13.25;9.37;;;;;;;25.25;53.85;99125.52;379652;105;1962031;-69
2021/08/05 00:52:03;;;;;;;12.69;8.81;;;;;;;25.23;53.94;99125.81;327281;105;2144978;-70
2021/08/05 00:53:16;;;;;;;13.56;9.27;;;;;;;25.32;54.08;99122.28;392375;104;1985907;-70
2021/08/05 00:54:23;;;;;;;12.48;8.36;;;;;;;25.19;54.09;99122.08;341834;107;2535957;-68
2021/08/05 00:55:35;;;;;;;12.57;8.53;;;;;;;25.28;54.23;99118.54;393213;104;1961952;-70
2021/08/05 00:56:43;;;;;;;14.06;8.97;;;;;;;25.20;54.32;99122.88;336881;107;2628911;-70
2021/08/05 00:58:07;;;;;;;13.39;8.75;;;;;;;25.16;54.39;99119.92;370587;107;1963982;-69
2021/08/05 00:59:14;;;;;;;13.33;8.94;;;;;;;25.19;54.28;99124.84;322590;109;2849970;-69
2021/08/05 01:00:39;;;;;;;12.46;8.68;;;;;;;25.26;54.18;99121.61;396661;103;1964968;-70
2021/08/05 01:02:41;;;;;;;11.86;9.17;;;;;;;25.16;54.35;99128.20;324519;105;2192041;-69
2021/08/05 01:04:26;;;;;;;12.17;8.66;;;;;;;25.32;54.06;99123.09;409949;101;2047928;-69
2021/08/05 01:06:50;;;;;;;14.38;8.47;;;;;;;25.25;53.97;99116.41;389693;103;1960822;-70
2021/08/05 01:08:11;;;;;;;13.84;8.99;;;;;;;25.37;53.97;99120.20;397610;102;2888873;-70
2021/08/05 01:09:31;;;;;;;13.11;8.55;;;;;;;25.31;53.57;99117.90;389729;103;1961005;-69
2021/08/05 01:11:03;;;;;;;14.50;9.63;;;;;;;25.33;53.57;99119.22;344170;103;2876964;-69
2021/08/05 01:12:23;;;;;;;13.04;8.61;;;;;;;25.41;53.67;99115.67;393441;104;1986032;-71
2021/08/05 01:13:35;;;;;;;15.73;9.29;;;;;;;25.30;53.70;99119.02;375479;106;1961014;-70
2021/08/05 01:14:51;;;;;;;11.42;8.58;;;;;;;25.37;53.71;99122.15;379778;104;1985914;-70
2021/08/05 01:16:01;;;;;;;13.66;9.09;;;;;;;25.23;53.67;99113.95;340894;105;2891009;-69
2021/08/05 01:17:26;;;;;;;15.06;9.10;;;;;;;25.25;53.55;99111.70;378045;107;1961984;-70
2021/08/05 01:18:33;;;;;;;12.17;8.56;;;;;;;25.22;53.49;99118.67;359624;107;2910095;-70
2021/08/05 01:19:52;;;;;;;17.53;9.14;;;;;;;25.34;53.52;99115.30;391521;104;1986122;-70
2021/08/05 01:21:02;;;;;;;15.38;8.87;;;;;;;25.24;53.41;99115.58;340618;107;2553103;-70
2021/08/05 01:22:37;;;;;;;18.05;9.88;;;;;;;25.38;53.27;99116.31;387432;104;1989010;-69
2021/08/05 01:23:56;;;;;;;15.91;8.88;;;;;;;25.38;53.20;99116.31;392614;104;1985891;-70
2021/08/05 01:25:45;;;;;;;15.68;9.28;;;;;;;25.30;53.13;99113.48;361144;107;1961903;-70
2021/08/05 01:27:03;;;;;;;18.01;9.57;;;;;;;25.36;53.19;99110.28;393032;104;1986992;-70
2021/08/05 01:28:26;;;;;;;14.79;9.59;;;;;;;25.29;53.02;99109.09;371877;108;1962001;-70
2021/08/05 01:29:51;;;;;;;19.75;9.77;;;;;;;25.21;53.02;99110.69;317775;106;2170963;-70
2021/08/05 01:31:05;;;;;;;15.67;9.48;;;;;;;25.34;52.91;99115.30;392953;104;1986075;-70
2021/08/05 01:32:11;;;;;;;17.51;10.66;;;;;;;25.22;52.93;99109.56;358710;106;1961910;-70
2021/08/05 01:33:24;;;;;;;15.80;9.33;;;;;;;25.33;52.94;99110.11;395099;104;1961894;-70
2021/08/05 01:34:31;;;;;;;19.38;10.13;;;;;;;25.17;53.03;99107.75;357788;111;1970020;-69
2021/08/05 01:35:44;;;;;;;17.31;9.93;;;;;;;25.29;52.99;99106.34;390836;103;1985947;-69
2021/08/05 01:36:52;;;;;;;16.21;9.24;;;;;;;25.22;52.90;99107.62;376556;105;1961909;-70
2021/08/05 01:38:05;;;;;;;15.05;9.12;;;;;;;25.31;52.93;99101.31;388729;104;1985975;-69
2021/08/05 01:39:12;;;;;;;15.37;9.15;;;;;;;25.16;52.92;99106.09;370591;107;1962063;-69
2021/08/05 01:40:37;;;;;;;19.46;9.73;;;;;;;25.14;52.96;99104.75;369706;107;1962006;-71
2021/08/05 01:41:52;;;;;;;13.52;7.57;;;;;;;25.22;52.91;99106.80;375772;109;1996042;-70
2021/08/05 01:42:59;;;;;;;13.03;7.78;;;;;;;25.07;52.92;99101.64;289030;112;2315956;-71
2021/08/05 01:44:12;;;;;;;11.09;7.42;;;;;;;25.14;52.95;99111.11;392764;104;1965021;-71
2021/08/05 01:45:18;;;;;;;13.91;8.19;;;;;;;25.05;52.77;99106.66;329892;105;2815046;-70
2021/08/05 01:46:44;;;;;;;12.15;8.12;;;;;;;25.08;52.71;99111.55;373730;106;1962084;-70
2021/08/05 01:47:57;;;;;;;11.44;7.34;;;;;;;25.16;52.61;99108.86;397416;104;1987048;-69
2021/08/05 01:49:04;;;;;;;12.63;8.09;;;;;;;25.04;52.59;99100.33;374085;105;1962041;-70
2021/08/05 01:50:17;;;;;;;12.38;7.89;;;;;;;25.15;52.62;99107.24;384693;106;1988046;-71
2021/08/05 01:51:23;;;;;;;11.60;7.23;;;;;;;25.02;52.58;99099.81;365312;109;1962970;-70
2021/08/05 01:52:30;;;;;;;11.44;7.47;;;;;;;25.03;52.61;99100.63;298520;111;2270078;-69
2021/08/05 01:53:43;;;;;;;11.83;7.91;;;;;;;25.18;52.51;99101.08;390611;104;2073054;-70
2021/08/05 01:54:48;;;;;;;10.29;7.35;;;;;;;25.08;52.46;99109.59;374849;107;1961989;-71
2021/08/05 01:56:01;;;;;;;12.21;8.03;;;;;;;25.19;52.43;99108.25;330230;104;2295995;-70
2021/08/05 01:57:09;;;;;;;12.39;8.32;;;;;;;25.04;52.55;99102.27;366974;107;1962033;-72
2021/08/05 01:58:33;;;;;;;11.57;8.17;;;;;;;25.04;52.54;99105.04;368288;107;1962084;-69
2021/08/05 01:59:45;;;;;;;13.06;8.42;;;;;;;25.15;52.52;99100.88;395282;104;1987023;-71
2021/08/05 02:00:52;;;;;;;11.84;7.47;;;;;;;24.98;52.67;99099.64;331593;106;2748024;-71
2021/08/05 02:02:00;;;;;;;13.12;7.81;;;;;;;25.00;52.65;99096.55;374408;105;1961040;-70
2021/08/05 02:03:14;;;;;;;13.49;8.56;;;;;;;25.13;52.62;99103.94;371547;109;1991993;-68
2021/08/05 02:04:30;;;;;;;11.16;7.19;;;;;;;25.14;52.53;99094.53;398880;104;1965006;-71
2021/08/05 02:06:06;;;;;;;13.32;7.78;;;;;;;25.05;52.42;99093.65;374396;105;1963998;-69
2021/08/05 02:07:17;;;;;;;11.31;7.49;;;;;;;25.00;52.57;99096.55;374654;107;1961958;-71
2021/08/05 02:08:46;;;;;;;10.99;7.41;;;;;;;25.09;52.62;99093.86;400546;101;1987031;-71
2021/08/05 02:10:10;;;;;;;13.57;7.59;;;;;;;24.93;52.90;99093.44;367687;107;1962027;-68
2021/08/05 02:11:27;;;;;;;12.03;7.66;;;;;;;25.08;52.65;99100.50;401970;101;1985997;-70
2021/08/05 02:12:40;;;;;;;12.85;7.50;;;;;;;24.95;52.64;99093.91;383828;104;1965010;-70
2021/08/05 02:13:53;;;;;;;11.13;7.72;;;;;;;25.02;52.87;99094.29;385064;106;1987005;-68
2021/08/05 02:15:01;;;;;;;10.81;7.39;;;;;;;24.97;52.72;99088.89;363658;109;1961905;-70
2021/08/05 02:16:27;;;;;;;11.84;7.69;;;;;;;24.97;52.69;99094.42;304187;108;2230003;-70
2021/08/05 02:17:43;;;;;;;12.58;7.82;;;;;;;25.03;52.82;99086.81;341097;104;2883060;-69
2021/08/05 02:18:51;;;;;;;13.57;7.61;;;;;;;24.93;52.84;99090.67;374700;108;1961947;-70
2021/08/05 02:20:09;;;;;;;11.10;7.62;;;;;;;25.03;52.88;99092.33;393933;103;1986048;-70
2021/08/05 02:21:16;;;;;;;11.93;8.16;;;;;;;24.88;52.94;99090.80;375719;107;1963038;-70
2021/08/05 02:22:44;;;;;;;12.52;8.17;;;;;;;24.86;53.07;99084.77;343620;106;2563010;-71
2021/08/05 02:23:58;;;;;;;13.73;7.99;;;;;;;24.99;52.96;99092.16;365140;104;1988938;-70
2021/08/05 02:25:12;;;;;;;10.94;7.57;;;;;;;24.96;53.08;99092.80;394470;104;1986889;-71
2021/08/05 02:26:39;;;;;;;11.47;7.70;;;;;;;24.86;53.08;99096.63;334128;107;2050976;-70
2021/08/05 02:27:53;;;;;;;14.29;7.61;;;;;;;25.04;52.92;99092.03;353454;106;2500948;-69
2021/08/05 02:28:59;;;;;;;12.76;8.04;;;;;;;24.94;52.84;99095.05;358937;112;1961832;-70
2021/08/05 02:30:24;;;;;;;12.25;7.18;;;;;;;24.95;52.84;99091.98;316104;112;2684015;-70
2021/08/05 02:31:39;;;;;;;12.57;7.75;;;;;;;25.07;52.88;99096.11;391306;104;1964954;-71
2021/08/05 02:32:45;;;;;;;11.78;8.25;;;;;;;24.93;52.96;99096.20;365417;107;1962047;-70
2021/08/05 02:33:58;;;;;;;12.18;8.73;;;;;;;25.00;53.06;99096.55;389961;104;2071974;-71
2021/08/05 02:35:07;;;;;;;12.62;8.28;;;;;;;24.90;53.09;99088.52;328185;107;2091040;-70
2021/08/05 02:36:31;;;;;;;12.05;7.63;;;;;;;24.90;53.04;99094.87;376671;106;1964007;-72
2021/08/05 02:37:37;;;;;;;12.40;8.06;;;;;;;24.90;53.08;99094.87;375588;106;1961981;-69
2021/08/05 02:38:43;;;;;;;11.78;7.97;;;;;;;24.93;53.00;99091.48;379027;106;1961799;-70
2021/08/05 02:39:56;;;;;;;11.67;8.54;;;;;;;25.02;53.11;99094.29;348305;106;2072936;-70
2021/08/05 02:41:02;;;;;;;11.06;7.90;;;;;;;24.92;53.13;99089.02;368864;109;1961973;-70
2021/08/05 02:42:15;;;;;;;12.91;9.22;;;;;;;25.03;53.20;99092.33;391186;104;2071904;-70
2021/08/05 02:43:25;;;;;;;13.29;8.22;;;;;;;24.89;53.25;99095.18;341041;106;2556888;-70
2021/08/05 02:44:38;;;;;;;12.98;7.95;;;;;;;25.07;53.19;99088.63;394190;101;1987064;-70
2021/08/05 02:45:47;;;;;;;15.48;8.46;;;;;;;24.96;53.17;99093.61;381522;105;1962046;-70
2021/08/05 02:47:11;;;;;;;12.81;8.35;;;;;;;24.94;53.27;99090.34;382647;105;1962073;-70
2021/08/05 02:48:17;;;;;;;12.46;8.77;;;;;;;24.94;53.25;99093.09;335653;105;2880050;-69
2021/08/05 02:49:31;;;;;;;13.64;9.14;;;;;;;25.04;53.27;99078.22;392377;104;1965369;-67
2021/08/05 02:50:40;;;;;;;13.49;9.26;;;;;;;24.96;53.30;99084.51;378350;107;1963039;-70
2021/08/05 02:51:53;;;;;;;16.90;9.29;;;;;;;25.10;53.23;99082.47;366702;104;2462001;-69
2021/08/05 02:53:00;;;;;;;15.88;10.61;;;;;;;25.03;53.12;99087.62;351683;105;1963992;-70
2021/08/05 02:54:24;;;;;;;16.89;9.51;;;;;;;25.05;52.99;99082.59;353398;105;1961862;-69
2021/08/05 02:55:37;;;;;;;13.96;10.04;;;;;;;25.21;52.91;99081.09;389465;104;2072090;-70
2021/08/05 02:56:44;;;;;;;15.46;9.02;;;;;;;25.08;53.01;99083.91;349316;107;1961916;-69
2021/08/05 02:57:57;;;;;;;15.89;10.46;;;;;;;25.40;52.49;99080.88;399338;101;1986017;-70
2021/08/05 02:59:02;;;;;;;18.89;10.36;;;;;;;25.34;52.33;99078.55;376984;106;1961998;-69
2021/08/05 03:00:26;;;;;;;18.11;10.26;;;;;;;25.38;52.31;99080.38;377291;105;1962034;-70
2021/08/05 03:01:41;;;;;;;17.63;9.62;;;;;;;25.48;52.27;99087.55;329850;104;2318962;-69
2021/08/05 03:02:48;;;;;;;14.09;9.86;;;;;;;25.37;52.32;99088.97;375895;107;1961975;-70
2021/08/05 03:04:00;;;;;;;15.76;10.05;;;;;;;25.60;52.13;99075.90;345873;106;2706861;-70
2021/08/05 03:05:08;;;;;;;18.22;10.52;;;;;;;25.52;52.00;99083.03;330796;109;2017911;-70
2021/08/05 03:06:35;;;;;;;16.16;10.63;;;;;;;25.47;51.96;99077.64;366147;107;1960971;-69
2021/08/05 03:07:40;;;;;;;17.29;11.12;;;;;;;25.55;51.90;99076.85;368847;109;1962035;-70
2021/08/05 03:08:54;;;;;;;19.46;10.82;;;;;;;25.70;51.82;99075.61;396931;104;1961951;-69
2021/08/05 03:09:59;;;;;;;14.02;10.11;;;;;;;25.65;51.63;99070.23;379693;105;1968616;-69
2021/08/05 03:11:11;;;;;;;18.27;10.28;;;;;;;25.87;51.43;99083.97;393392;104;1984626;-70
2021/08/05 03:12:16;;;;;;;15.83;10.43;;;;;;;25.75;51.45;99083.77;373229;107;1960847;-70
2021/08/05 03:13:21;;;;;;;19.70;10.04;;;;;;;25.68;51.55;99079.84;373629;107;1960996;-70
2021/08/05 03:14:34;;;;;;;20.49;11.54;;;;;;;25.77;51.68;99081.47;389659;104;2071858;-71
2021/08/05 03:15:39;;;;;;;14.83;10.02;;;;;;;25.76;51.53;99079.05;375243;106;1961056;-70
2021/08/05 03:16:45;;;;;;;22.42;11.56;;;;;;;25.76;51.40;99073.51;368111;108;1960834;-70
2021/08/05 03:17:58;;;;;;;18.34;10.59;;;;;;;25.86;51.54;99081.55;375191;106;2908934;-69
2021/08/05 03:19:10;;;;;;;20.17;10.38;;;;;;;25.94;51.50;99074.41;397181;104;1986837;-69
2021/08/05 03:20:16;;;;;;;17.26;10.71;;;;;;;25.76;51.44;99081.81;380100;105;1963881;-70
2021/08/05 03:21:28;;;;;;;15.61;10.02;;;;;;;25.99;51.33;99077.83;393186;104;1962015;-71
2021/08/05 03:22:34;;;;;;;14.86;10.06;;;;;;;25.85;51.29;99089.04;373635;106;1970980;-70
2021/08/05 03:23:57;;;;;;;18.53;10.73;;;;;;;25.82;51.33;99088.81;364889;110;1963783;-70
2021/08/05 03:25:10;;;;;;;16.73;11.19;;;;;;;26.02;51.16;99084.67;397194;104;1987041;-70
2021/08/05 03:26:15;;;;;;;15.17;11.34;;;;;;;25.90;51.17;99076.98;344470;105;2609989;-70
2021/08/05 03:27:21;;;;;;;14.64;10.81;;;;;;;25.95;51.05;99082.37;333655;105;2101949;-71
2021/08/05 03:28:26;;;;;;;18.79;11.71;;;;;;;25.99;51.01;99075.06;331961;107;2059829;-70
2021/08/05 03:29:31;;;;;;;16.48;10.87;;;;;;;26.01;51.00;99083.03;325731;107;2126981;-70
2021/08/05 03:30:43;;;;;;;13.97;10.07;;;;;;;26.13;50.87;99076.88;394373;104;1986072;-70
2021/08/05 03:31:49;;;;;;;14.79;10.85;;;;;;;26.03;50.83;99083.53;373959;107;1961959;-69
2021/08/05 03:33:01;;;;;;;15.15;10.32;;;;;;;26.18;50.68;99076.72;399843;101;1986016;-70
2021/08/05 03:34:06;;;;;;;14.99;9.69;;;;;;;26.04;50.69;99080.45;377337;105;1961931;-70
2021/08/05 03:35:19;;;;;;;16.45;11.12;;;;;;;26.17;50.64;99075.08;390023;104;2073066;-70
2021/08/05 03:36:25;;;;;;;16.02;10.54;;;;;;;26.12;50.60;99075.23;375429;106;1961019;-70
2021/08/05 03:37:59;;;;;;;17.68;11.37;;;;;;;26.13;50.60;99080.45;316399;105;2220980;-70
2021/08/05 03:39:04;;;;;;;14.54;10.86;;;;;;;26.18;50.48;99079.49;354549;109;1961898;-69
2021/08/05 03:40:16;;;;;;;14.88;10.77;;;;;;;26.32;50.39;99069.06;394361;104;1987030;-70
2021/08/05 03:41:21;;;;;;;13.16;10.34;;;;;;;26.22;50.34;99072.15;374843;106;1962063;-70
2021/08/05 03:42:33;;;;;;;14.27;10.07;;;;;;;26.34;50.26;99068.75;392624;104;1985930;-70
2021/08/05 03:43:39;;;;;;;17.46;11.65;;;;;;;26.26;50.15;99067.61;369687;108;1964003;-70
2021/08/05 03:45:02;;;;;;;14.38;10.21;;;;;;;26.27;50.18;99069.22;370721;108;1966919;-70
2021/08/05 03:46:14;;;;;;;12.72;10.75;;;;;;;26.45;49.96;99070.86;388528;104;2073104;-70
2021/08/05 03:47:20;;;;;;;14.41;10.11;;;;;;;26.39;49.86;99066.63;366921;105;2942040;-71
2021/08/05 03:48:25;;;;;;;15.71;10.68;;;;;;;26.57;49.31;99064.71;367580;107;1962060;-70
2021/08/05 03:49:40;;;;;;;15.43;10.43;;;;;;;26.49;49.76;99063.55;392240;104;1986997;-70
2021/08/05 03:50:47;;;;;;;14.32;10.62;;;;;;;26.45;49.62;99067.28;349830;106;1961996;-70
2021/08/05 03:51:59;;;;;;;16.14;11.53;;;;;;;26.66;49.50;99062.73;390185;104;2071994;-71
2021/08/05 03:53:04;;;;;;;15.39;10.17;;;;;;;26.61;49.39;99068.44;371905;107;1970075;-70
2021/08/05 03:54:28;;;;;;;14.81;10.13;;;;;;;26.64;49.24;99069.74;317966;108;2168040;-70
2021/08/05 03:55:40;;;;;;;15.01;10.69;;;;;;;26.82;49.10;99065.81;405116;101;1984912;-70
2021/08/05 03:56:46;;;;;;;15.19;10.91;;;;;;;26.66;49.18;99068.27;385977;104;1962103;-71
2021/08/05 03:57:59;;;;;;;15.98;11.59;;;;;;;26.81;49.08;99071.70;322640;104;2365008;-71
2021/08/05 03:59:04;;;;;;;14.39;10.93;;;;;;;26.76;48.94;99072.67;339140;107;1962055;-70
2021/08/05 04:00:28;;;;;;;16.33;11.76;;;;;;;26.78;48.93;99073.16;366450;107;1962010;-71
2021/08/05 04:01:34;;;;;;;15.12;11.37;;;;;;;26.79;48.88;99076.75;301281;107;2383054;-70
2021/08/05 04:02:46;;;;;;;16.41;12.71;;;;;;;26.95;48.72;99078.66;388563;104;2073023;-71
2021/08/05 04:03:52;;;;;;;16.89;12.42;;;;;;;26.84;48.70;99080.16;370731;107;1968984;-70
2021/08/05 04:05:05;;;;;;;15.73;12.41;;;;;;;27.02;48.55;99077.34;396164;104;1986002;-70
2021/08/05 04:06:17;;;;;;;13.05;10.64;;;;;;;27.06;48.41;99073.58;394042;104;1973053;-71
2021/08/05 04:07:41;;;;;;;15.82;12.00;;;;;;;27.02;48.26;99077.34;302064;107;2364996;-70
2021/08/05 04:08:53;;;;;;;14.57;10.36;;;;;;;27.20;48.11;99073.41;394180;104;1961967;-70
2021/08/05 04:09:59;;;;;;;18.26;11.97;;;;;;;27.07;48.21;99068.84;373656;106;1970099;-70
2021/08/05 04:11:22;;;;;;;15.97;11.46;;;;;;;27.13;48.17;99070.31;353415;107;1961966;-72
2021/08/05 04:12:29;;;;;;;16.49;11.17;;;;;;;27.10;48.06;99057.93;375247;107;1962003;-71
2021/08/05 04:13:41;;;;;;;15.54;11.63;;;;;;;27.22;48.18;99062.00;393802;104;1986994;-72
2021/08/05 04:14:47;;;;;;;15.54;10.72;;;;;;;26.96;48.50;99066.45;361048;109;1962023;-70
2021/08/05 04:15:52;;;;;;;18.37;10.33;;;;;;;27.00;48.45;99066.59;352097;111;2934075;-71
2021/08/05 04:17:04;;;;;;;14.39;10.77;;;;;;;27.29;47.98;99067.84;391628;104;1987073;-71
2021/08/05 04:18:10;;;;;;;16.46;10.86;;;;;;;27.16;48.09;99067.69;367519;107;1961982;-69
2021/08/05 04:19:26;;;;;;;20.63;11.79;;;;;;;27.35;47.88;99072.06;392870;104;2074109;-71
2021/08/05 04:20:30;;;;;;;17.52;9.73;;;;;;;27.26;47.83;99071.30;380875;105;1963862;-71
2021/08/05 04:21:42;;;;;;;11.84;9.37;;;;;;;27.48;47.52;99071.02;374426;109;1987982;-70
2021/08/05 04:22:49;;;;;;;14.37;9.87;;;;;;;27.38;47.43;99077.75;353322;112;1962039;-70
2021/08/05 04:24:12;;;;;;;13.77;9.94;;;;;;;27.48;47.13;99075.77;348059;113;1962005;-70
2021/08/05 04:25:17;;;;;;;14.31;9.22;;;;;;;27.57;46.97;99070.98;349602;113;1963073;-70
2021/08/05 04:26:23;;;;;;;17.23;10.29;;;;;;;27.37;47.10;99069.77;341939;115;1962003;-70
2021/08/05 04:27:39;;;;;;;16.05;9.61;;;;;;;27.56;46.99;99074.91;393273;104;1986864;-71
2021/08/05 04:28:45;;;;;;;14.86;9.94;;;;;;;27.42;47.07;99077.11;368437;107;1961829;-72
2021/08/05 04:29:59;;;;;;;15.23;10.32;;;;;;;27.52;46.88;99072.00;395817;104;1965007;-71
2021/08/05 04:31:04;;;;;;;16.34;10.57;;;;;;;27.45;46.97;99074.47;375878;105;1962062;-70
2021/08/05 04:32:27;;;;;;;18.07;10.33;;;;;;;27.44;47.06;99072.83;306471;105;2400119;-72
2021/08/05 04:33:39;;;;;;;14.15;10.36;;;;;;;27.61;46.90;99071.95;392822;104;2071015;-71
2021/08/05 04:34:47;;;;;;;13.71;10.44;;;;;;;27.65;46.68;99069.31;381430;105;1968991;-72
2021/08/05 04:35:59;;;;;;;18.55;10.83;;;;;;;27.80;46.49;99068.75;389694;104;1986012;-71
2021/08/05 04:37:04;;;;;;;20.47;11.29;;;;;;;27.83;46.18;99063.36;358855;105;1963069;-71
2021/08/05 04:38:28;;;;;;;17.12;10.19;;;;;;;27.57;46.80;99068.20;377836;105;1961988;-71
2021/08/05 04:39:40;;;;;;;13.54;9.69;;;;;;;27.69;46.86;99059.19;388414;104;2074885;-69
2021/08/05 04:40:46;;;;;;;13.89;9.11;;;;;;;28.00;45.87;99061.65;375100;107;1961970;-71
2021/08/05 04:41:59;;;;;;;14.22;10.11;;;;;;;28.16;45.74;99061.87;399864;101;2071828;-72
2021/08/05 04:43:05;;;;;;;16.38;9.57;;;;;;;27.95;45.90;99064.62;381671;104;1963951;-71
2021/08/05 04:44:28;;;;;;;13.91;9.40;;;;;;;28.15;45.53;99060.22;382396;105;1961952;-73
2021/08/05 04:45:41;;;;;;;14.42;9.82;;;;;;;28.40;45.17;99058.41;379746;104;3041009;-71
2021/08/05 04:46:47;;;;;;;15.18;9.42;;;;;;;28.20;45.44;99062.80;321881;107;2183955;-72
2021/08/05 04:48:05;;;;;;;12.70;8.72;;;;;;;28.51;45.24;99054.09;396514;104;1987047;-72
2021/08/05 04:49:19;;;;;;;12.67;8.58;;;;;;;28.58;45.03;99054.36;383102;104;1987080;-72
2021/08/05 04:50:44;;;;;;;16.36;8.67;;;;;;;28.64;44.74;99064.10;375558;107;1963952;-72
2021/08/05 04:51:53;;;;;;;11.67;8.62;;;;;;;28.71;44.62;99052.41;376851;107;1962032;-72
2021/08/05 04:53:05;;;;;;;14.69;9.98;;;;;;;28.89;44.40;99058.63;355153;103;2680975;-73
2021/08/05 04:54:11;;;;;;;13.02;9.83;;;;;;;28.83;44.17;99052.47;375318;105;1964079;-72
2021/08/05 04:55:16;;;;;;;13.84;9.51;;;;;;;28.86;43.96;99056.53;374131;107;1961877;-72
2021/08/05 04:56:22;;;;;;;12.83;9.13;;;;;;;28.94;43.72;99052.84;373887;107;1962045;-72
2021/08/05 04:57:50;;;;;;;14.01;9.35;;;;;;;29.07;43.42;99056.50;355254;104;2639977;-72
2021/08/05 04:58:55;;;;;;;13.57;8.61;;;;;;;28.95;43.39;99060.05;351237;108;1964036;-72
2021/08/05 05:00:09;;;;;;;14.04;9.22;;;;;;;29.22;43.29;99055.04;400915;101;1985982;-72
2021/08/05 05:01:15;;;;;;;12.39;8.76;;;;;;;29.13;43.09;99055.92;383277;105;1962924;-73
2021/08/05 05:02:27;;;;;;;13.18;9.54;;;;;;;29.25;42.86;99055.15;389055;103;2080959;-72
2021/08/05 05:03:39;;;;;;;12.12;9.16;;;;;;;29.47;42.46;99062.23;373952;108;1985968;-74
2021/08/05 05:05:02;;;;;;;13.59;9.08;;;;;;;29.40;42.22;99059.23;302221;111;2222020;-73
2021/08/05 05:06:14;;;;;;;15.28;9.61;;;;;;;29.40;42.32;99058.40;390000;103;2072060;-72
2021/08/05 05:07:20;;;;;;;13.39;9.95;;;;;;;29.34;41.91;99060.59;378658;105;1963277;-73
2021/08/05 05:08:43;;;;;;;16.15;9.04;;;;;;;29.20;42.33;99060.94;307547;107;2295158;-73
2021/08/05 05:09:56;;;;;;;14.91;9.24;;;;;;;29.27;42.59;99054.81;393465;104;1961957;-72
2021/08/05 05:11:03;;;;;;;12.26;9.14;;;;;;;29.02;42.81;99053.91;373914;106;1970014;-73
2021/08/05 05:12:08;;;;;;;14.29;9.08;;;;;;;28.93;42.95;99054.81;373577;106;1961997;-72
2021/08/05 05:13:20;;;;;;;14.39;8.45;;;;;;;29.19;42.81;99061.27;388504;104;1985956;-73
2021/08/05 05:14:26;;;;;;;13.65;9.51;;;;;;;29.12;42.70;99056.28;373729;107;1961995;-74
2021/08/05 05:15:39;;;;;;;18.51;9.39;;;;;;;29.25;42.57;99060.71;386124;106;1984996;-73
2021/08/05 05:16:46;;;;;;;13.66;9.40;;;;;;;29.18;42.43;99052.12;333958;109;2011820;-72
2021/08/05 05:18:10;;;;;;;13.08;8.80;;;;;;;29.23;42.49;99054.67;369054;108;1961853;-73
2021/08/05 05:19:23;;;;;;;12.15;9.24;;;;;;;29.13;42.54;99057.90;394775;103;1964881;-74
2021/08/05 05:20:29;;;;;;;13.90;9.96;;;;;;;28.94;42.74;99055.63;376921;106;1960904;-73
2021/08/05 05:21:34;;;;;;;14.63;9.63;;;;;;;28.97;42.70;99060.50;377985;106;1960856;-73
2021/08/05 05:22:46;;;;;;;14.19;8.89;;;;;;;29.08;42.83;99058.95;384789;104;2939842;-73
2021/08/05 05:23:52;;;;;;;17.68;10.09;;;;;;;28.85;43.06;99063.26;369685;107;1960783;-72
2021/08/05 05:25:06;;;;;;;14.26;8.84;;;;;;;28.93;43.15;99062.35;384169;106;1984906;-73
2021/08/05 05:26:11;;;;;;;13.31;9.16;;;;;;;28.89;42.99;99066.96;364336;109;1961941;-73
2021/08/05 05:27:34;;;;;;;13.11;9.16;;;;;;;29.02;42.80;99062.25;358818;110;1961974;-72
2021/08/05 05:28:40;;;;;;;14.31;9.39;;;;;;;28.93;42.86;99062.35;355081;110;1961915;-72
2021/08/05 05:29:55;;;;;;;14.02;9.45;;;;;;;29.08;42.78;99061.73;404693;101;1986881;-72